sensor_id;sensor_type;location;lat;lon;timestamp;pressure;altitude;pressure_sealevel;temperature;humidity
48204;BME280;33994;50.998;5.864;2023-04-22T00:00:51;100300.00;;;8.89;92.21
48204;BME280;33994;50.998;5.864;2023-04-22T00:03:54;100298.25;;;8.89;92.30
48204;BME280;33994;50.998;5.864;2023-04-22T00:06:57;100301.72;;;8.90;92.37
48204;BME280;33994;50.998;5.864;2023-04-22T00:10:01;100303.47;;;8.88;92.56
48204;BME280;33994;50.998;5.864;2023-04-22T00:13:04;100304.38;;;8.88;93.05
48204;BME280;33994;50.998;5.864;2023-04-22T00:16:09;100305.22;;;8.87;93.34
48204;BME280;33994;50.998;5.864;2023-04-22T00:19:12;100295.78;;;8.82;93.32
48204;BME280;33994;50.998;5.864;2023-04-22T00:22:15;100295.78;;;8.80;93.76
48204;BME280;33994;50.998;5.864;2023-04-22T00:25:19;100294.91;;;8.81;94.32
48204;BME280;33994;50.998;5.864;2023-04-22T00:28:22;100291.50;;;8.77;94.46
48204;BME280;33994;50.998;5.864;2023-04-22T00:31:26;100288.84;;;8.79;94.69
48204;BME280;33994;50.998;5.864;2023-04-22T00:34:29;100289.78;;;8.75;94.11
48204;BME280;33994;50.998;5.864;2023-04-22T00:37:33;100287.22;;;8.72;94.07
48204;BME280;33994;50.998;5.864;2023-04-22T00:40:36;100287.19;;;8.75;94.26
48204;BME280;33994;50.998;5.864;2023-04-22T00:43:39;100282.88;;;8.74;94.38
48204;BME280;33994;50.998;5.864;2023-04-22T00:46:44;100283.69;;;8.76;94.58
48204;BME280;33994;50.998;5.864;2023-04-22T00:49:48;100280.13;;;8.80;94.68
48204;BME280;33994;50.998;5.864;2023-04-22T00:52:51;100274.91;;;8.82;94.48
48204;BME280;33994;50.998;5.864;2023-04-22T00:55:55;100266.25;;;8.81;94.28
48204;BME280;33994;50.998;5.864;2023-04-22T00:58:58;100271.47;;;8.81;94.31
48204;BME280;33994;50.998;5.864;2023-04-22T01:02:03;100269.78;;;8.77;94.60
48204;BME280;33994;50.998;5.864;2023-04-22T01:05:06;100267.13;;;8.79;95.04
48204;BME280;33994;50.998;5.864;2023-04-22T01:08:09;100266.25;;;8.81;95.18
48204;BME280;33994;50.998;5.864;2023-04-22T01:11:13;100270.59;;;8.79;95.26
48204;BME280;33994;50.998;5.864;2023-04-22T01:14:17;100261.16;;;8.72;95.42
48204;BME280;33994;50.998;5.864;2023-04-22T01:17:21;100263.00;;;8.67;95.79
48204;BME280;33994;50.998;5.864;2023-04-22T01:20:26;100264.69;;;8.68;96.18
48204;BME280;33994;50.998;5.864;2023-04-22T01:23:30;100255.13;;;8.70;96.34
48204;BME280;33994;50.998;5.864;2023-04-22T01:26:34;100261.28;;;8.66;96.44
48204;BME280;33994;50.998;5.864;2023-04-22T01:29:37;100251.72;;;8.65;96.74
48204;BME280;33994;50.998;5.864;2023-04-22T01:32:41;100256.91;;;8.66;96.67
48204;BME280;33994;50.998;5.864;2023-04-22T01:35:44;100262.94;;;8.70;96.59
48204;BME280;33994;50.998;5.864;2023-04-22T01:38:49;100261.19;;;8.70;96.39
48204;BME280;33994;50.998;5.864;2023-04-22T01:41:52;100268.16;;;8.70;96.40
48204;BME280;33994;50.998;5.864;2023-04-22T01:44:55;100271.69;;;8.66;96.47
48204;BME280;33994;50.998;5.864;2023-04-22T01:47:58;100263.94;;;8.63;96.58
48204;BME280;33994;50.998;5.864;2023-04-22T01:51:02;100261.34;;;8.60;96.83
48204;BME280;33994;50.998;5.864;2023-04-22T01:54:06;100275.25;;;8.62;97.05
48204;BME280;33994;50.998;5.864;2023-04-22T01:57:11;100260.47;;;8.62;97.06
48204;BME280;33994;50.998;5.864;2023-04-22T02:00:15;100256.88;;;8.68;97.37
48204;BME280;33994;50.998;5.864;2023-04-22T02:03:18;100259.47;;;8.69;97.15
48204;BME280;33994;50.998;5.864;2023-04-22T02:06:22;100256.78;;;8.74;97.25
48204;BME280;33994;50.998;5.864;2023-04-22T02:09:26;100261.97;;;8.75;97.16
48204;BME280;33994;50.998;5.864;2023-04-22T02:12:29;100266.28;;;8.78;97.15
48204;BME280;33994;50.998;5.864;2023-04-22T02:15:33;100253.25;;;8.76;97.32
48204;BME280;33994;50.998;5.864;2023-04-22T02:18:36;100259.34;;;8.77;97.49
48204;BME280;33994;50.998;5.864;2023-04-22T02:21:39;100260.22;;;8.77;97.79
48204;BME280;33994;50.998;5.864;2023-04-22T02:24:44;100257.59;;;8.77;97.66
48204;BME280;33994;50.998;5.864;2023-04-22T02:27:47;100247.19;;;8.77;97.74
48204;BME280;33994;50.998;5.864;2023-04-22T02:30:50;100250.59;;;8.81;97.66
48204;BME280;33994;50.998;5.864;2023-04-22T02:33:54;100245.34;;;8.83;97.63
48204;BME280;33994;50.998;5.864;2023-04-22T02:36:57;100243.53;;;8.86;97.05
48204;BME280;33994;50.998;5.864;2023-04-22T02:40:01;100245.31;;;8.84;96.74
48204;BME280;33994;50.998;5.864;2023-04-22T02:43:04;100239.28;;;8.82;96.68
48204;BME280;33994;50.998;5.864;2023-04-22T02:46:07;100247.09;;;8.82;96.41
48204;BME280;33994;50.998;5.864;2023-04-22T02:49:11;100240.16;;;8.81;96.20
48204;BME280;33994;50.998;5.864;2023-04-22T02:52:14;100242.78;;;8.80;96.20
48204;BME280;33994;50.998;5.864;2023-04-22T02:55:19;100234.13;;;8.77;96.19
48204;BME280;33994;50.998;5.864;2023-04-22T02:58:22;100229.78;;;8.76;96.27
48204;BME280;33994;50.998;5.864;2023-04-22T03:01:25;100229.00;;;8.71;96.31
48204;BME280;33994;50.998;5.864;2023-04-22T03:04:28;100222.94;;;8.71;96.51
48204;BME280;33994;50.998;5.864;2023-04-22T03:07:31;100220.44;;;8.65;96.54
48204;BME280;33994;50.998;5.864;2023-04-22T03:10:36;100216.19;;;8.58;96.75
48204;BME280;33994;50.998;5.864;2023-04-22T03:13:39;100211.06;;;8.55;97.02
48204;BME280;33994;50.998;5.864;2023-04-22T03:16:42;100206.69;;;8.55;97.42
48204;BME280;33994;50.998;5.864;2023-04-22T03:19:46;100209.31;;;8.53;97.26
48204;BME280;33994;50.998;5.864;2023-04-22T03:22:49;100194.56;;;8.52;97.17
48204;BME280;33994;50.998;5.864;2023-04-22T03:25:53;100194.56;;;8.54;97.27
48204;BME280;33994;50.998;5.864;2023-04-22T03:28:56;100192.81;;;8.55;97.45
48204;BME280;33994;50.998;5.864;2023-04-22T03:31:59;100187.56;;;8.56;97.11
48204;BME280;33994;50.998;5.864;2023-04-22T03:35:02;100192.78;;;8.56;97.25
48204;BME280;33994;50.998;5.864;2023-04-22T03:38:05;100194.53;;;8.56;97.33
48204;BME280;33994;50.998;5.864;2023-04-22T03:41:10;100193.66;;;8.55;97.48
48204;BME280;33994;50.998;5.864;2023-04-22T03:44:13;100189.34;;;8.54;97.22
48204;BME280;33994;50.998;5.864;2023-04-22T03:47:16;100180.66;;;8.53;97.43
48204;BME280;33994;50.998;5.864;2023-04-22T03:50:19;100179.81;;;8.51;97.41
48204;BME280;33994;50.998;5.864;2023-04-22T03:53:23;100174.63;;;8.50;97.75
48204;BME280;33994;50.998;5.864;2023-04-22T03:56:27;100169.41;;;8.51;97.71
48204;BME280;33994;50.998;5.864;2023-04-22T03:59:30;100166.75;;;8.53;97.76
48204;BME280;33994;50.998;5.864;2023-04-22T04:02:33;100153.72;;;8.55;97.70
48204;BME280;33994;50.998;5.864;2023-04-22T04:05:37;100156.28;;;8.56;97.53
48204;BME280;33994;50.998;5.864;2023-04-22T04:08:40;100156.31;;;8.55;97.69
48204;BME280;33994;50.998;5.864;2023-04-22T04:11:44;100145.06;;;8.52;97.69
48204;BME280;33994;50.998;5.864;2023-04-22T04:14:47;100149.41;;;8.52;97.68
48204;BME280;33994;50.998;5.864;2023-04-22T04:17:50;100144.25;;;8.49;97.86
48204;BME280;33994;50.998;5.864;2023-04-22T04:20:54;100144.22;;;8.50;97.78
48204;BME280;33994;50.998;5.864;2023-04-22T04:23:56;100143.34;;;8.50;97.92
48204;BME280;33994;50.998;5.864;2023-04-22T04:27:01;100139.06;;;8.47;97.77
48204;BME280;33994;50.998;5.864;2023-04-22T04:30:05;100136.47;;;8.47;98.08
48204;BME280;33994;50.998;5.864;2023-04-22T04:33:09;100134.66;;;8.49;98.11
48204;BME280;33994;50.998;5.864;2023-04-22T04:36:12;100136.44;;;8.49;98.00
48204;BME280;33994;50.998;5.864;2023-04-22T04:39:15;100134.72;;;8.48;98.04
48204;BME280;33994;50.998;5.864;2023-04-22T04:42:20;100138.13;;;8.50;98.39
48204;BME280;33994;50.998;5.864;2023-04-22T04:45:23;100136.41;;;8.50;98.34
48204;BME280;33994;50.998;5.864;2023-04-22T04:48:26;100142.50;;;8.49;98.41
48204;BME280;33994;50.998;5.864;2023-04-22T04:51:29;100142.50;;;8.51;98.48
48204;BME280;33994;50.998;5.864;2023-04-22T04:54:32;100139.84;;;8.52;98.51
48204;BME280;33994;50.998;5.864;2023-04-22T04:57:37;100139.84;;;8.52;98.51
48204;BME280;33994;50.998;5.864;2023-04-22T05:00:40;100141.56;;;8.53;98.61
48204;BME280;33994;50.998;5.864;2023-04-22T05:03:43;100129.41;;;8.52;98.55
48204;BME280;33994;50.998;5.864;2023-04-22T05:06:46;100129.38;;;8.56;98.54
48204;BME280;33994;50.998;5.864;2023-04-22T05:09:50;100136.28;;;8.57;98.51
48204;BME280;33994;50.998;5.864;2023-04-22T05:12:54;100138.91;;;8.57;98.66
48204;BME280;33994;50.998;5.864;2023-04-22T05:15:57;100136.28;;;8.57;98.47
48204;BME280;33994;50.998;5.864;2023-04-22T05:19:01;100143.22;;;8.59;98.62
48204;BME280;33994;50.998;5.864;2023-04-22T05:22:04;100145.81;;;8.58;98.60
48204;BME280;33994;50.998;5.864;2023-04-22T05:25:08;100146.66;;;8.60;98.77
48204;BME280;33994;50.998;5.864;2023-04-22T05:28:13;100154.41;;;8.64;98.73
48204;BME280;33994;50.998;5.864;2023-04-22T05:31:16;100145.63;;;8.68;98.39
48204;BME280;33994;50.998;5.864;2023-04-22T05:34:19;100142.09;;;8.72;98.15
48204;BME280;33994;50.998;5.864;2023-04-22T05:37:22;100145.50;;;8.77;98.13
48204;BME280;33994;50.998;5.864;2023-04-22T05:40:25;100148.91;;;8.81;98.02
48204;BME280;33994;50.998;5.864;2023-04-22T05:43:30;100147.97;;;8.85;97.83
48204;BME280;33994;50.998;5.864;2023-04-22T05:46:33;100146.06;;;8.92;97.60
48204;BME280;33994;50.998;5.864;2023-04-22T05:49:36;100153.78;;;8.98;97.39
48204;BME280;33994;50.998;5.864;2023-04-22T05:52:39;100143.09;;;9.12;96.91
48204;BME280;33994;50.998;5.864;2023-04-22T05:55:43;100153.38;;;9.19;96.59
48204;BME280;33994;50.998;5.864;2023-04-22T05:58:47;100161.97;;;9.24;96.29
48204;BME280;33994;50.998;5.864;2023-04-22T06:01:50;100153.97;;;9.35;96.23
48204;BME280;33994;50.998;5.864;2023-04-22T06:04:54;100156.22;;;9.52;95.97
48204;BME280;33994;50.998;5.864;2023-04-22T06:07:57;100153.16;;;9.72;95.15
48204;BME280;33994;50.998;5.864;2023-04-22T06:11:00;100158.03;;;9.87;94.69
48204;BME280;33994;50.998;5.864;2023-04-22T06:14:05;100163.69;;;10.06;93.89
48204;BME280;33994;50.998;5.864;2023-04-22T06:17:08;100140.66;;;10.23;93.46
48204;BME280;33994;50.998;5.864;2023-04-22T06:20:11;100139.53;;;10.34;92.47
48204;BME280;33994;50.998;5.864;2023-04-22T06:23:14;100133.09;;;10.47;91.79
48204;BME280;33994;50.998;5.864;2023-04-22T06:26:18;100145.78;;;10.62;91.16
48204;BME280;33994;50.998;5.864;2023-04-22T06:29:22;100152.25;;;10.83;90.70
48204;BME280;33994;50.998;5.864;2023-04-22T06:32:26;100148.38;;;10.97;90.15
48204;BME280;33994;50.998;5.864;2023-04-22T06:35:29;100145.69;;;11.00;89.58
48204;BME280;33994;50.998;5.864;2023-04-22T06:38:33;100137.84;;;11.00;89.58
48204;BME280;33994;50.998;5.864;2023-04-22T06:41:36;100132.44;;;11.06;90.01
48204;BME280;33994;50.998;5.864;2023-04-22T06:44:40;100126.94;;;11.15;89.82
48204;BME280;33994;50.998;5.864;2023-04-22T06:47:44;100120.56;;;11.25;89.48
48204;BME280;33994;50.998;5.864;2023-04-22T06:50:47;100126.22;;;11.39;89.11
48204;BME280;33994;50.998;5.864;2023-04-22T06:53:50;100126.75;;;11.52;88.61
48204;BME280;33994;50.998;5.864;2023-04-22T06:56:53;100127.38;;;11.60;88.46
48204;BME280;33994;50.998;5.864;2023-04-22T06:59:58;100128.75;;;11.72;88.11
48204;BME280;33994;50.998;5.864;2023-04-22T07:03:01;100135.22;;;11.88;88.03
48204;BME280;33994;50.998;5.864;2023-04-22T07:06:05;100131.19;;;12.05;87.87
48204;BME280;33994;50.998;5.864;2023-04-22T07:09:08;100120.16;;;12.23;87.49
48204;BME280;33994;50.998;5.864;2023-04-22T07:12:11;100120.50;;;12.39;86.62
48204;BME280;33994;50.998;5.864;2023-04-22T07:15:16;100105.13;;;12.55;86.15
48204;BME280;33994;50.998;5.864;2023-04-22T07:18:19;100097.50;;;12.72;85.30
48204;BME280;33994;50.998;5.864;2023-04-22T07:21:23;100104.84;;;12.87;84.85
48204;BME280;33994;50.998;5.864;2023-04-22T07:24:26;100112.97;;;13.05;84.57
48204;BME280;33994;50.998;5.864;2023-04-22T07:27:29;100108.06;;;13.19;83.95
48204;BME280;33994;50.998;5.864;2023-04-22T07:30:34;100114.03;;;13.23;83.71
48204;BME280;33994;50.998;5.864;2023-04-22T07:33:37;100107.47;;;13.34;83.88
48204;BME280;33994;50.998;5.864;2023-04-22T07:36:40;100107.75;;;13.52;83.32
48204;BME280;33994;50.998;5.864;2023-04-22T07:39:43;100107.66;;;13.53;83.02
48204;BME280;33994;50.998;5.864;2023-04-22T07:42:46;100095.81;;;13.65;82.11
48204;BME280;33994;50.998;5.864;2023-04-22T07:45:51;100085.81;;;13.75;81.52
48204;BME280;33994;50.998;5.864;2023-04-22T07:48:54;100083.00;;;13.79;80.67
48204;BME280;33994;50.998;5.864;2023-04-22T07:51:57;100086.31;;;13.84;80.79
48204;BME280;33994;50.998;5.864;2023-04-22T07:55:00;100089.50;;;13.93;80.41
48204;BME280;33994;50.998;5.864;2023-04-22T07:58:03;100085.81;;;13.97;80.11
48204;BME280;33994;50.998;5.864;2023-04-22T08:01:08;100088.44;;;13.97;80.29
48204;BME280;33994;50.998;5.864;2023-04-22T08:04:11;100077.66;;;14.03;79.68
48204;BME280;33994;50.998;5.864;2023-04-22T08:07:14;100081.63;;;14.13;79.33
48204;BME280;33994;50.998;5.864;2023-04-22T08:10:17;100087.50;;;14.20;79.41
48204;BME280;33994;50.998;5.864;2023-04-22T08:13:21;100078.94;;;14.15;79.15
48204;BME280;33994;50.998;5.864;2023-04-22T08:16:26;100070.16;;;14.16;79.12
48204;BME280;33994;50.998;5.864;2023-04-22T08:19:29;100065.34;;;14.25;79.11
48204;BME280;33994;50.998;5.864;2023-04-22T08:22:33;100071.53;;;14.45;78.82
48204;BME280;33994;50.998;5.864;2023-04-22T08:25:36;100063.97;;;14.57;77.84
48204;BME280;33994;50.998;5.864;2023-04-22T08:28:39;100060.13;;;14.66;77.41
48204;BME280;33994;50.998;5.864;2023-04-22T08:31:44;100056.16;;;14.76;77.31
48204;BME280;33994;50.998;5.864;2023-04-22T08:34:47;100060.03;;;14.88;77.30
48204;BME280;33994;50.998;5.864;2023-04-22T08:37:50;100056.25;;;14.94;76.04
48204;BME280;33994;50.998;5.864;2023-04-22T08:40:55;100061.75;;;15.08;74.60
48204;BME280;33994;50.998;5.864;2023-04-22T08:43:58;100060.25;;;15.21;73.18
48204;BME280;33994;50.998;5.864;2023-04-22T08:47:03;100059.75;;;15.32;72.06
48204;BME280;33994;50.998;5.864;2023-04-22T08:50:08;100057.34;;;15.46;72.25
48204;BME280;33994;50.998;5.864;2023-04-22T08:53:11;100064.59;;;15.60;71.94
48204;BME280;33994;50.998;5.864;2023-04-22T08:56:15;100063.22;;;15.70;71.73
48204;BME280;33994;50.998;5.864;2023-04-22T08:59:19;100062.03;;;15.77;70.72
48204;BME280;33994;50.998;5.864;2023-04-22T09:02:26;100057.31;;;15.84;70.18
48204;BME280;33994;50.998;5.864;2023-04-22T09:05:31;100047.47;;;15.88;69.75
48204;BME280;33994;50.998;5.864;2023-04-22T09:08:35;100052.59;;;15.91;69.98
48204;BME280;33994;50.998;5.864;2023-04-22T09:11:38;100051.28;;;15.99;70.18
48204;BME280;33994;50.998;5.864;2023-04-22T09:14:42;100051.66;;;16.09;69.86
48204;BME280;33994;50.998;5.864;2023-04-22T09:17:46;100046.09;;;16.15;69.23
48204;BME280;33994;50.998;5.864;2023-04-22T09:20:54;100059.91;;;16.20;68.50
48204;BME280;33994;50.998;5.864;2023-04-22T09:23:59;100057.06;;;16.25;67.97
48204;BME280;33994;50.998;5.864;2023-04-22T09:27:02;100057.75;;;16.28;68.09
48204;BME280;33994;50.998;5.864;2023-04-22T09:30:07;100048.56;;;16.36;67.70
48204;BME280;33994;50.998;5.864;2023-04-22T09:33:12;100047.47;;;16.40;67.31
48204;BME280;33994;50.998;5.864;2023-04-22T09:36:16;100049.66;;;16.49;67.46
48204;BME280;33994;50.998;5.864;2023-04-22T09:39:22;100051.91;;;16.57;67.04
48204;BME280;33994;50.998;5.864;2023-04-22T09:42:26;100054.19;;;16.63;66.54
48204;BME280;33994;50.998;5.864;2023-04-22T09:45:30;100055.16;;;16.62;66.92
48204;BME280;33994;50.998;5.864;2023-04-22T09:48:41;100053.19;;;16.65;66.51
48204;BME280;33994;50.998;5.864;2023-04-22T09:51:44;100059.66;;;16.77;66.26
48204;BME280;33994;50.998;5.864;2023-04-22T09:54:48;100062.06;;;16.82;65.72
48204;BME280;33994;50.998;5.864;2023-04-22T09:57:52;100053.91;;;16.86;65.85
48204;BME280;33994;50.998;5.864;2023-04-22T10:00:57;100049.31;;;16.90;65.84
48204;BME280;33994;50.998;5.864;2023-04-22T10:04:02;100055.19;;;16.95;66.07
48204;BME280;33994;50.998;5.864;2023-04-22T10:07:05;100061.69;;;17.05;65.64
48204;BME280;33994;50.998;5.864;2023-04-22T10:10:08;100055.91;;;17.14;65.35
48204;BME280;33994;50.998;5.864;2023-04-22T10:13:11;100046.56;;;17.24;65.19
48204;BME280;33994;50.998;5.864;2023-04-22T10:16:15;100050.56;;;17.32;64.15
48204;BME280;33994;50.998;5.864;2023-04-22T10:19:23;100041.53;;;17.36;63.58
48204;BME280;33994;50.998;5.864;2023-04-22T10:22:27;100033.66;;;17.34;63.81
48204;BME280;33994;50.998;5.864;2023-04-22T10:25:30;100035.38;;;17.35;63.71
48204;BME280;33994;50.998;5.864;2023-04-22T10:28:33;100031.44;;;17.42;63.11
48204;BME280;33994;50.998;5.864;2023-04-22T10:31:37;100022.06;;;17.52;63.27
48204;BME280;33994;50.998;5.864;2023-04-22T10:34:41;100023.06;;;17.66;62.82
48204;BME280;33994;50.998;5.864;2023-04-22T10:37:45;100023.06;;;17.66;61.83
48204;BME280;33994;50.998;5.864;2023-04-22T10:40:57;100030.53;;;17.59;60.08
48204;BME280;33994;50.998;5.864;2023-04-22T10:44:05;100025.66;;;17.51;60.99
48204;BME280;33994;50.998;5.864;2023-04-22T10:47:09;100023.88;;;17.52;61.73
48204;BME280;33994;50.998;5.864;2023-04-22T10:50:16;100019.53;;;17.51;61.59
48204;BME280;33994;50.998;5.864;2023-04-22T10:53:36;100025.66;;;17.51;61.45
48204;BME280;33994;50.998;5.864;2023-04-22T10:57:00;100033.16;;;17.59;61.38
48204;BME280;33994;50.998;5.864;2023-04-22T11:00:17;100027.50;;;17.65;61.53
48204;BME280;33994;50.998;5.864;2023-04-22T11:03:26;100030.69;;;17.72;61.57
48204;BME280;33994;50.998;5.864;2023-04-22T11:06:30;100036.75;;;17.74;61.54
48204;BME280;33994;50.998;5.864;2023-04-22T11:09:38;100042.91;;;17.74;61.33
48204;BME280;33994;50.998;5.864;2023-04-22T11:12:42;100050.19;;;17.69;61.69
48204;BME280;33994;50.998;5.864;2023-04-22T11:15:46;100060.19;;;17.64;61.40
48204;BME280;33994;50.998;5.864;2023-04-22T11:18:51;100058.66;;;17.60;61.79
48204;BME280;33994;50.998;5.864;2023-04-22T11:21:55;100051.50;;;17.62;61.75
48204;BME280;33994;50.998;5.864;2023-04-22T11:24:59;100053.03;;;17.66;61.45
48204;BME280;33994;50.998;5.864;2023-04-22T11:28:03;100048.34;;;17.71;61.53
48204;BME280;33994;50.998;5.864;2023-04-22T11:31:07;100055.75;;;17.81;61.26
48204;BME280;33994;50.998;5.864;2023-04-22T11:34:11;100045.78;;;17.86;61.30
48204;BME280;33994;50.998;5.864;2023-04-22T11:37:18;100064.03;;;17.90;60.75
48204;BME280;33994;50.998;5.864;2023-04-22T11:40:23;100065.66;;;17.93;61.06
48204;BME280;33994;50.998;5.864;2023-04-22T11:43:26;100066.56;;;17.92;61.09
48204;BME280;33994;50.998;5.864;2023-04-22T11:46:30;100077.09;;;17.93;61.12
48204;BME280;33994;50.998;5.864;2023-04-22T11:49:33;100065.91;;;17.88;61.32
48204;BME280;33994;50.998;5.864;2023-04-22T11:52:46;100066.09;;;17.85;61.05
48204;BME280;33994;50.998;5.864;2023-04-22T11:55:50;100074.09;;;17.84;61.37
48204;BME280;33994;50.998;5.864;2023-04-22T11:58:53;100076.00;;;17.82;61.79
48204;BME280;33994;50.998;5.864;2023-04-22T12:01:56;100076.00;;;17.82;61.92
48204;BME280;33994;50.998;5.864;2023-04-22T12:05:01;100078.03;;;17.77;62.14
48204;BME280;33994;50.998;5.864;2023-04-22T12:08:10;100089.81;;;17.71;62.73
48204;BME280;33994;50.998;5.864;2023-04-22T12:11:13;100087.91;;;17.57;63.19
48204;BME280;33994;50.998;5.864;2023-04-22T12:14:16;100071.72;;;17.47;64.46
48204;BME280;33994;50.998;5.864;2023-04-22T12:17:22;100078.28;;;17.40;65.28
48204;BME280;33994;50.998;5.864;2023-04-22T12:20:31;100067.97;;;17.36;65.34
48204;BME280;33994;50.998;5.864;2023-04-22T12:23:41;100065.38;;;17.34;65.16
48204;BME280;33994;50.998;5.864;2023-04-22T12:26:44;100062.75;;;17.34;64.66
48204;BME280;33994;50.998;5.864;2023-04-22T12:29:51;100069.81;;;17.34;64.31
48204;BME280;33994;50.998;5.864;2023-04-22T12:32:54;100066.44;;;17.32;63.77
48204;BME280;33994;50.998;5.864;2023-04-22T12:35:57;100064.78;;;17.29;64.00
48204;BME280;33994;50.998;5.864;2023-04-22T12:39:01;100063.31;;;17.23;63.67
48204;BME280;33994;50.998;5.864;2023-04-22T12:42:05;100068.97;;;17.17;63.50
48204;BME280;33994;50.998;5.864;2023-04-22T12:45:09;100075.25;;;17.15;63.50
48204;BME280;33994;50.998;5.864;2023-04-22T12:48:12;100085.91;;;17.13;64.76
48204;BME280;33994;50.998;5.864;2023-04-22T12:51:15;100083.59;;;17.07;65.48
48204;BME280;33994;50.998;5.864;2023-04-22T12:54:20;100085.63;;;17.02;66.90
48204;BME280;33994;50.998;5.864;2023-04-22T12:57:24;100089.53;;;16.95;67.97
48204;BME280;33994;50.998;5.864;2023-04-22T13:00:28;100094.63;;;16.82;68.87
48204;BME280;33994;50.998;5.864;2023-04-22T13:03:32;100101.50;;;16.67;70.23
48204;BME280;33994;50.998;5.864;2023-04-22T13:06:35;100104.47;;;16.61;70.63
48204;BME280;33994;50.998;5.864;2023-04-22T13:09:40;100095.28;;;16.51;70.50
48204;BME280;33994;50.998;5.864;2023-04-22T13:12:43;100104.38;;;16.45;70.51
48204;BME280;33994;50.998;5.864;2023-04-22T13:15:47;100101.03;;;16.42;70.81
48204;BME280;33994;50.998;5.864;2023-04-22T13:18:50;100102.13;;;16.38;71.05
48204;BME280;33994;50.998;5.864;2023-04-22T13:21:53;100100.44;;;16.37;70.83
48204;BME280;33994;50.998;5.864;2023-04-22T13:24:58;100104.16;;;16.33;70.75
48204;BME280;33994;50.998;5.864;2023-04-22T13:28:01;100099.66;;;16.35;70.53
48204;BME280;33994;50.998;5.864;2023-04-22T13:31:04;100108.25;;;16.38;71.52
48204;BME280;33994;50.998;5.864;2023-04-22T13:34:09;100105.47;;;16.41;70.88
48204;BME280;33994;50.998;5.864;2023-04-22T13:37:12;100114.34;;;16.40;71.46
48204;BME280;33994;50.998;5.864;2023-04-22T13:40:17;100101.03;;;16.42;72.37
48204;BME280;33994;50.998;5.864;2023-04-22T13:43:20;100103.06;;;16.37;72.44
48204;BME280;33994;50.998;5.864;2023-04-22T13:46:23;100090.09;;;16.32;71.94
48204;BME280;33994;50.998;5.864;2023-04-22T13:49:26;100087.69;;;16.27;71.80
48204;BME280;33994;50.998;5.864;2023-04-22T13:52:29;100098.47;;;16.23;71.86
48204;BME280;33994;50.998;5.864;2023-04-22T13:55:34;100090.47;;;16.24;71.90
48204;BME280;33994;50.998;5.864;2023-04-22T13:58:37;100087.22;;;16.19;72.21
48204;BME280;33994;50.998;5.864;2023-04-22T14:01:41;100087.38;;;16.16;71.98
48204;BME280;33994;50.998;5.864;2023-04-22T14:04:44;100084.66;;;16.18;72.04
48204;BME280;33994;50.998;5.864;2023-04-22T14:07:47;100093.50;;;16.17;71.94
48204;BME280;33994;50.998;5.864;2023-04-22T14:10:52;100088.00;;;16.21;72.25
48204;BME280;33994;50.998;5.864;2023-04-22T14:13:55;100083.59;;;16.22;72.06
48204;BME280;33994;50.998;5.864;2023-04-22T14:16:58;100089.84;;;16.19;71.91
48204;BME280;33994;50.998;5.864;2023-04-22T14:20:02;100084.72;;;16.16;72.69
48204;BME280;33994;50.998;5.864;2023-04-22T14:23:05;100088.44;;;16.12;74.07
48204;BME280;33994;50.998;5.864;2023-04-22T14:26:11;100091.63;;;16.01;75.45
48204;BME280;33994;50.998;5.864;2023-04-22T14:29:14;100094.72;;;15.92;76.14
48204;BME280;33994;50.998;5.864;2023-04-22T14:32:17;100094.94;;;15.88;76.44
48204;BME280;33994;50.998;5.864;2023-04-22T14:35:20;100100.28;;;15.86;77.07
48204;BME280;33994;50.998;5.864;2023-04-22T14:38:24;100099.78;;;15.78;77.47
48204;BME280;33994;50.998;5.864;2023-04-22T14:41:28;100104.53;;;15.70;78.05
48204;BME280;33994;50.998;5.864;2023-04-22T14:44:32;100100.47;;;15.63;78.38
48204;BME280;33994;50.998;5.864;2023-04-22T14:47:35;100099.94;;;15.56;78.91
48204;BME280;33994;50.998;5.864;2023-04-22T14:50:38;100104.69;;;15.48;79.34
48204;BME280;33994;50.998;5.864;2023-04-22T14:53:41;100109.25;;;15.44;79.79
48204;BME280;33994;50.998;5.864;2023-04-22T14:56:45;100106.78;;;15.41;79.93
48204;BME280;33994;50.998;5.864;2023-04-22T14:59:49;100109.47;;;15.40;80.08
48204;BME280;33994;50.998;5.864;2023-04-22T15:02:52;100108.84;;;15.35;79.81
48204;BME280;33994;50.998;5.864;2023-04-22T15:05:56;100109.75;;;15.33;80.11
48204;BME280;33994;50.998;5.864;2023-04-22T15:08:59;100113.47;;;15.29;80.40
48204;BME280;33994;50.998;5.864;2023-04-22T15:12:03;100116.25;;;15.26;81.06
48204;BME280;33994;50.998;5.864;2023-04-22T15:15:07;100113.53;;;15.28;81.33
48204;BME280;33994;50.998;5.864;2023-04-22T15:18:11;100114.59;;;15.24;81.90
48204;BME280;33994;50.998;5.864;2023-04-22T15:21:14;100114.72;;;15.21;82.30
48204;BME280;33994;50.998;5.864;2023-04-22T15:24:17;100122.75;;;15.18;82.72
48204;BME280;33994;50.998;5.864;2023-04-22T15:27:22;100132.44;;;15.17;83.51
48204;BME280;33994;50.998;5.864;2023-04-22T15:30:25;100127.59;;;15.08;84.54
48204;BME280;33994;50.998;5.864;2023-04-22T15:33:28;100122.59;;;15.02;85.67
48204;BME280;33994;50.998;5.864;2023-04-22T15:36:31;100123.78;;;14.95;87.12
48204;BME280;33994;50.998;5.864;2023-04-22T15:39:34;100119.66;;;14.89;88.17
48204;BME280;33994;50.998;5.864;2023-04-22T15:42:41;100128.59;;;14.85;89.61
48204;BME280;33994;50.998;5.864;2023-04-22T15:45:44;100129.78;;;14.78;90.25
48204;BME280;33994;50.998;5.864;2023-04-22T15:48:47;100137.09;;;14.71;90.90
48204;BME280;33994;50.998;5.864;2023-04-22T15:51:51;100125.91;;;14.66;91.85
48204;BME280;33994;50.998;5.864;2023-04-22T15:54:54;100127.72;;;14.64;92.67
48204;BME280;33994;50.998;5.864;2023-04-22T15:57:58;100125.34;;;14.58;93.42
48204;BME280;33994;50.998;5.864;2023-04-22T16:01:02;100123.66;;;14.57;93.85
48204;BME280;33994;50.998;5.864;2023-04-22T16:04:05;100121.06;;;14.55;94.24
48204;BME280;33994;50.998;5.864;2023-04-22T16:07:08;100125.69;;;14.50;94.84